Time;durP1;ratioP1;P1;durP2;ratioP2;P2;SDS_P1;SDS_P2;PMS_P1;PMS_P2;Temp;Humidity;BMP_temperature;BMP_pressure;BME280_temperature;BME280_humidity;BME280_pressure;Samples;Min_cycle;Max_cycle;Signal;HPM_P1;HPM_P2
2022/03/25 00:00:32;;;;;;;5.15;3.17;;;;;;;;;;7392723;19;20415;-78
2022/03/25 00:02:58;;;;;;;6.22;3.10;;;;;;;;;;7394292;19;20122;-79
2022/03/25 00:05:23;;;;;;;4.90;2.88;;;;;;;;;;7392711;19;20044;-79
2022/03/25 00:07:48;;;;;;;5.82;3.28;;;;;;;;;;7392003;19;20014;-79
2022/03/25 00:10:14;;;;;;;4.35;2.70;;;;;;;;;;7391585;19;20029;-79
2022/03/25 00:12:39;;;;;;;3.60;2.17;;;;;;;;;;7391601;19;20010;-79
2022/03/25 00:15:05;;;;;;;7.00;2.88;;;;;;;;;;7393804;19;20021;-78
2022/03/25 00:17:30;;;;;;;7.53;2.63;;;;;;;;;;7392699;19;20010;-79
2022/03/25 00:19:56;;;;;;;3.58;2.60;;;;;;;;;;7387202;19;20006;-78
2022/03/25 00:22:21;;;;;;;4.72;2.58;;;;;;;;;;7391724;19;20027;-78
2022/03/25 00:24:47;;;;;;;4.53;2.25;;;;;;;;;;7391033;19;20022;-78
2022/03/25 00:27:12;;;;;;;4.72;2.92;;;;;;;;;;7391038;19;20027;-78
2022/03/25 00:29:37;;;;;;;4.45;3.03;;;;;;;;;;7390093;19;20014;-78
2022/03/25 00:32:04;;;;;;;5.10;2.78;;;;;;;;;;7394048;19;20083;-79
2022/03/25 00:34:30;;;;;;;4.28;2.33;;;;;;;;;;7391050;19;20010;-79
2022/03/25 00:36:57;;;;;;;4.00;2.45;;;;;;;;;;7392836;19;20559;-78
2022/03/25 00:39:22;;;;;;;3.47;2.33;;;;;;;;;;7390714;19;20042;-79
2022/03/25 00:41:48;;;;;;;4.95;2.53;;;;;;;;;;7393503;19;21338;-79
2022/03/25 00:44:14;;;;;;;5.60;3.15;;;;;;;;;;7394563;19;20858;-79
2022/03/25 00:46:40;;;;;;;2.72;1.92;;;;;;;;;;7389890;19;20055;-78
2022/03/25 00:49:05;;;;;;;3.55;2.45;;;;;;;;;;7385817;19;20014;-77
2022/03/25 00:51:31;;;;;;;4.68;2.30;;;;;;;;;;7388795;19;20011;-76
2022/03/25 00:53:56;;;;;;;7.43;2.60;;;;;;;;;;7385595;19;20011;-77
2022/03/25 00:56:22;;;;;;;5.55;2.65;;;;;;;;;;7389006;19;20019;-77
2022/03/25 00:58:47;;;;;;;5.28;2.85;;;;;;;;;;7386302;19;20018;-78
2022/03/25 01:01:12;;;;;;;5.88;2.72;;;;;;;;;;7385095;19;20010;-77
2022/03/25 01:03:38;;;;;;;4.38;2.53;;;;;;;;;;7386956;19;20672;-77
2022/03/25 01:06:03;;;;;;;3.75;2.47;;;;;;;;;;7385441;19;20404;-77
2022/03/25 01:08:29;;;;;;;5.70;2.58;;;;;;;;;;7386091;19;21162;-78
2022/03/25 01:10:55;;;;;;;8.63;3.05;;;;;;;;;;7386388;19;20013;-78
2022/03/25 01:13:20;;;;;;;5.80;3.13;;;;;;;;;;7389364;19;20010;-77
2022/03/25 01:15:45;;;;;;;6.97;2.72;;;;;;;;;;7387823;19;20341;-76
2022/03/25 01:18:11;;;;;;;4.47;2.53;;;;;;;;;;7385353;19;20438;-77
2022/03/25 01:20:36;;;;;;;4.68;2.33;;;;;;;;;;7384408;19;20023;-77
2022/03/25 01:23:02;;;;;;;5.43;2.47;;;;;;;;;;7389059;19;20074;-77
2022/03/25 01:25:28;;;;;;;5.93;2.53;;;;;;;;;;7386241;19;20011;-77
2022/03/25 01:27:54;;;;;;;3.42;1.88;;;;;;;;;;7386810;19;20014;-77
2022/03/25 01:30:19;;;;;;;5.32;2.72;;;;;;;;;;7384391;19;20015;-79
2022/03/25 01:32:44;;;;;;;5.53;2.85;;;;;;;;;;7388502;19;20479;-77
2022/03/25 01:35:09;;;;;;;5.75;2.28;;;;;;;;;;7393759;19;20013;-78
2022/03/25 01:37:36;;;;;;;5.38;2.58;;;;;;;;;;7395130;19;20482;-78
2022/03/25 01:40:02;;;;;;;3.47;2.17;;;;;;;;;;7391388;19;20026;-77
2022/03/25 01:42:32;;;;;;;7.97;2.42;;;;;;;;;;7393544;19;20007;-77
2022/03/25 01:44:57;;;;;;;4.05;2.58;;;;;;;;;;7395549;19;20033;-77
2022/03/25 01:47:28;;;;;;;5.80;2.58;;;;;;;;;;7392813;19;20477;-78
2022/03/25 01:49:53;;;;;;;3.88;2.45;;;;;;;;;;7392753;19;20387;-79
2022/03/25 01:52:18;;;;;;;4.38;2.22;;;;;;;;;;7395095;19;20073;-78
2022/03/25 01:54:44;;;;;;;5.72;2.47;;;;;;;;;;7393842;19;19995;-78
2022/03/25 01:57:09;;;;;;;3.92;2.25;;;;;;;;;;7394129;19;20030;-78
2022/03/25 01:59:35;;;;;;;4.40;1.98;;;;;;;;;;7391557;19;20015;-77
2022/03/25 02:02:02;;;;;;;3.85;2.22;;;;;;;;;;7392386;19;20014;-77
2022/03/25 02:04:27;;;;;;;4.88;2.40;;;;;;;;;;7393805;19;20002;-77
2022/03/25 02:06:53;;;;;;;2.92;1.90;;;;;;;;;;7392851;19;20019;-78
2022/03/25 02:09:19;;;;;;;6.72;3.08;;;;;;;;;;7390358;19;20011;-77
2022/03/25 02:11:45;;;;;;;4.43;2.05;;;;;;;;;;7392944;19;20634;-77
2022/03/25 02:14:11;;;;;;;2.95;1.83;;;;;;;;;;7394507;19;20014;-77
2022/03/25 02:16:38;;;;;;;4.38;2.28;;;;;;;;;;7393305;19;20319;-77
2022/03/25 02:19:04;;;;;;;5.53;2.55;;;;;;;;;;7389963;19;20348;-77
2022/03/25 02:21:31;;;;;;;2.92;1.92;;;;;;;;;;7392266;19;20015;-78
2022/03/25 02:23:57;;;;;;;5.72;1.92;;;;;;;;;;7394155;19;20002;-77
2022/03/25 02:26:23;;;;;;;4.05;2.05;;;;;;;;;;7392710;19;20430;-77
2022/03/25 02:28:48;;;;;;;2.80;1.65;;;;;;;;;;7391549;19;20275;-77
2022/03/25 02:31:15;;;;;;;3.92;2.00;;;;;;;;;;7391068;19;20521;-76
2022/03/25 02:33:40;;;;;;;4.45;1.98;;;;;;;;;;7392236;19;20101;-77
2022/03/25 02:36:08;;;;;;;3.65;1.90;;;;;;;;;;7393128;19;20042;-77
2022/03/25 02:38:33;;;;;;;3.45;1.92;;;;;;;;;;7391546;19;20014;-77
2022/03/25 02:40:58;;;;;;;4.18;2.33;;;;;;;;;;7390446;19;20029;-77
2022/03/25 02:43:23;;;;;;;6.45;2.08;;;;;;;;;;7392311;19;20014;-77
2022/03/25 02:45:49;;;;;;;3.00;1.88;;;;;;;;;;7389659;19;20033;-77
2022/03/25 02:48:14;;;;;;;3.85;2.30;;;;;;;;;;7389995;19;20040;-79
2022/03/25 02:50:40;;;;;;;3.70;2.03;;;;;;;;;;7389264;19;20045;-77
2022/03/25 02:53:05;;;;;;;2.63;1.55;;;;;;;;;;7393311;19;20029;-77
2022/03/25 02:55:30;;;;;;;2.50;1.67;;;;;;;;;;7390732;19;20096;-76
2022/03/25 02:57:56;;;;;;;2.90;1.70;;;;;;;;;;7391244;19;20470;-76
2022/03/25 03:00:22;;;;;;;3.20;1.98;;;;;;;;;;7389249;19;20043;-77
2022/03/25 03:02:48;;;;;;;6.25;2.47;;;;;;;;;;7393631;19;19999;-77
2022/03/25 03:05:14;;;;;;;3.83;1.92;;;;;;;;;;7393274;19;20324;-76
2022/03/25 03:07:40;;;;;;;4.68;2.50;;;;;;;;;;7393947;19;20010;-76
2022/03/25 03:10:08;;;;;;;4.13;1.98;;;;;;;;;;7394696;19;20014;-76
2022/03/25 03:12:35;;;;;;;2.60;1.85;;;;;;;;;;7395510;19;20010;-75
2022/03/25 03:15:01;;;;;;;2.95;1.73;;;;;;;;;;7396076;19;20011;-77
2022/03/25 03:17:27;;;;;;;2.90;1.73;;;;;;;;;;7395535;19;20521;-77
2022/03/25 03:19:52;;;;;;;2.40;1.52;;;;;;;;;;7390373;19;20014;-75
2022/03/25 03:22:17;;;;;;;4.78;2.22;;;;;;;;;;7391049;19;20002;-75
2022/03/25 03:24:44;;;;;;;2.80;1.80;;;;;;;;;;7388983;19;20047;-77
2022/03/25 03:27:10;;;;;;;3.67;2.00;;;;;;;;;;7389953;19;20484;-77
2022/03/25 03:29:36;;;;;;;3.47;2.00;;;;;;;;;;7388606;19;20006;-76
2022/03/25 03:32:02;;;;;;;3.30;1.58;;;;;;;;;;7389676;19;20014;-77
2022/03/25 03:34:31;;;;;;;6.43;1.77;;;;;;;;;;7388438;19;20018;-76
2022/03/25 03:36:57;;;;;;;2.60;1.75;;;;;;;;;;7390824;19;20043;-77
2022/03/25 03:39:22;;;;;;;3.72;1.80;;;;;;;;;;7389551;19;20010;-75
2022/03/25 03:41:48;;;;;;;3.13;1.55;;;;;;;;;;7390899;19;20034;-76
2022/03/25 03:44:13;;;;;;;2.67;1.58;;;;;;;;;;7389009;19;20010;-77
2022/03/25 03:46:38;;;;;;;2.50;1.48;;;;;;;;;;7388567;19;20017;-75
2022/03/25 03:49:04;;;;;;;2.58;1.58;;;;;;;;;;7390235;19;20731;-77
2022/03/25 03:51:29;;;;;;;2.58;1.52;;;;;;;;;;7390237;19;20018;-77
2022/03/25 03:53:55;;;;;;;2.85;1.80;;;;;;;;;;7388088;19;20488;-75
2022/03/25 03:56:22;;;;;;;4.32;2.40;;;;;;;;;;7389187;19;20010;-76
2022/03/25 03:58:47;;;;;;;3.30;1.52;;;;;;;;;;7387906;19;20002;-76
2022/03/25 04:01:13;;;;;;;4.35;1.88;;;;;;;;;;7386740;19;20026;-75
2022/03/25 04:03:38;;;;;;;3.90;1.88;;;;;;;;;;7389606;19;20007;-77
2022/03/25 04:06:03;;;;;;;2.97;1.70;;;;;;;;;;7388836;19;20014;-76
2022/03/25 04:08:29;;;;;;;4.85;1.85;;;;;;;;;;7389189;19;20023;-77
2022/03/25 04:10:54;;;;;;;4.07;2.08;;;;;;;;;;7388313;19;20135;-76
2022/03/25 04:13:20;;;;;;;4.55;1.92;;;;;;;;;;7389120;19;20036;-75
2022/03/25 04:15:45;;;;;;;2.80;1.63;;;;;;;;;;7389443;19;20330;-76
2022/03/25 04:18:10;;;;;;;3.60;2.05;;;;;;;;;;7388280;19;20007;-75
2022/03/25 04:20:35;;;;;;;2.65;1.55;;;;;;;;;;7381685;19;20290;-75
2022/03/25 04:23:01;;;;;;;3.83;2.08;;;;;;;;;;7387962;19;20021;-76
2022/03/25 04:25:26;;;;;;;2.30;1.23;;;;;;;;;;7388514;19;19998;-77
2022/03/25 04:27:56;;;;;;;4.88;1.90;;;;;;;;;;7388626;19;20081;-76
2022/03/25 04:30:26;;;;;;;3.45;2.03;;;;;;;;;;7390104;19;20006;-76
2022/03/25 04:32:52;;;;;;;4.70;2.00;;;;;;;;;;7387421;19;20058;-75
2022/03/25 04:35:19;;;;;;;3.25;1.48;;;;;;;;;;7388004;19;20471;-76
2022/03/25 04:37:46;;;;;;;2.75;1.52;;;;;;;;;;7392624;19;20125;-77
2022/03/25 04:40:14;;;;;;;4.03;1.58;;;;;;;;;;7385357;19;20015;-77
2022/03/25 04:42:39;;;;;;;4.13;1.85;;;;;;;;;;7390204;19;20695;-76
2022/03/25 04:45:05;;;;;;;4.00;1.75;;;;;;;;;;7389364;19;20007;-76
2022/03/25 04:47:30;;;;;;;4.05;2.03;;;;;;;;;;7386424;19;20849;-77
2022/03/25 04:49:56;;;;;;;5.70;1.58;;;;;;;;;;7388220;19;20003;-76
2022/03/25 04:52:21;;;;;;;4.43;1.80;;;;;;;;;;7388535;19;20117;-76
2022/03/25 04:54:47;;;;;;;3.97;1.52;;;;;;;;;;7390480;19;20003;-76
2022/03/25 04:57:12;;;;;;;4.45;2.08;;;;;;;;;;7388649;19;20400;-77
2022/03/25 04:59:37;;;;;;;4.80;2.03;;;;;;;;;;7388321;19;20070;-76
2022/03/25 05:02:03;;;;;;;4.40;1.92;;;;;;;;;;7390429;19;20066;-76
2022/03/25 05:04:28;;;;;;;2.95;1.83;;;;;;;;;;7390121;19;20692;-76
2022/03/25 05:06:53;;;;;;;6.03;1.95;;;;;;;;;;7386299;19;20023;-76
2022/03/25 05:09:19;;;;;;;4.07;1.75;;;;;;;;;;7392214;19;20014;-76
2022/03/25 05:11:44;;;;;;;3.75;1.85;;;;;;;;;;7396074;19;20478;-76
2022/03/25 05:14:10;;;;;;;4.05;2.08;;;;;;;;;;7394320;19;20023;-75
2022/03/25 05:16:35;;;;;;;3.97;1.83;;;;;;;;;;7395522;19;20013;-76
2022/03/25 05:19:01;;;;;;;5.32;2.10;;;;;;;;;;7395725;19;20022;-76
2022/03/25 05:21:26;;;;;;;2.75;1.55;;;;;;;;;;7396254;19;20501;-76
2022/03/25 05:23:51;;;;;;;3.22;1.80;;;;;;;;;;7397022;19;20035;-76
2022/03/25 05:26:16;;;;;;;4.05;2.20;;;;;;;;;;7395569;19;20046;-76
2022/03/25 05:28:42;;;;;;;2.95;1.77;;;;;;;;;;7394611;19;20010;-76
2022/03/25 05:31:07;;;;;;;3.40;1.67;;;;;;;;;;7393782;19;20014;-76
2022/03/25 05:33:33;;;;;;;3.28;1.85;;;;;;;;;;7393749;19;20007;-76
2022/03/25 05:35:58;;;;;;;4.95;2.05;;;;;;;;;;7395649;19;20002;-77
2022/03/25 05:38:24;;;;;;;4.18;2.03;;;;;;;;;;7394097;19;20017;-77
2022/03/25 05:40:49;;;;;;;4.05;1.80;;;;;;;;;;7392137;19;20147;-77
2022/03/25 05:43:15;;;;;;;3.35;1.88;;;;;;;;;;7405206;19;20014;-77
2022/03/25 05:45:40;;;;;;;4.45;1.80;;;;;;;;;;7400862;19;20360;-77
2022/03/25 05:48:05;;;;;;;4.30;2.10;;;;;;;;;;7395114;19;20009;-77
2022/03/25 05:50:31;;;;;;;4.18;2.13;;;;;;;;;;7400484;19;20496;-77
2022/03/25 05:52:56;;;;;;;2.95;1.67;;;;;;;;;;7398697;19;20013;-79
2022/03/25 05:55:21;;;;;;;3.13;1.67;;;;;;;;;;7393420;19;20018;-77
2022/03/25 05:57:49;;;;;;;4.47;1.70;;;;;;;;;;7395370;19;19998;-77
2022/03/25 06:00:15;;;;;;;3.08;1.80;;;;;;;;;;7392283;19;20350;-77
2022/03/25 06:02:42;;;;;;;6.90;2.20;;;;;;;;;;7394291;19;20466;-77
2022/03/25 06:05:08;;;;;;;4.65;2.33;;;;;;;;;;7393824;19;20018;-77
2022/03/25 06:07:35;;;;;;;5.30;2.55;;;;;;;;;;7391625;19;20028;-76
2022/03/25 06:10:00;;;;;;;4.03;2.53;;;;;;;;;;7391237;19;20355;-76
2022/03/25 06:12:25;;;;;;;4.13;2.28;;;;;;;;;;7394341;19;20019;-77
2022/03/25 06:14:51;;;;;;;6.00;2.33;;;;;;;;;;7395423;19;20018;-77
2022/03/25 06:17:16;;;;;;;4.65;2.40;;;;;;;;;;7393641;19;20015;-78
2022/03/25 06:19:41;;;;;;;5.35;3.05;;;;;;;;;;7387624;19;20006;-78
2022/03/25 06:22:07;;;;;;;5.25;2.55;;;;;;;;;;7392655;19;20023;-78
2022/03/25 06:24:32;;;;;;;3.67;2.03;;;;;;;;;;7389172;19;20518;-78
2022/03/25 06:26:57;;;;;;;5.05;2.45;;;;;;;;;;7391204;19;20400;-76
2022/03/25 06:29:23;;;;;;;5.07;2.08;;;;;;;;;;7391665;19;20348;-77
2022/03/25 06:31:48;;;;;;;6.78;2.30;;;;;;;;;;7393623;19;20018;-76
2022/03/25 06:34:20;;;;;;;4.40;2.30;;;;;;;;;;7394206;19;20066;-77
2022/03/25 06:36:45;;;;;;;4.10;2.22;;;;;;;;;;7393433;19;20351;-77
2022/03/25 06:39:10;;;;;;;4.60;2.30;;;;;;;;;;7391403;19;20025;-76
2022/03/25 06:41:36;;;;;;;3.28;2.05;;;;;;;;;;7394621;19;20023;-77
2022/03/25 06:44:01;;;;;;;3.13;2.05;;;;;;;;;;7394341;19;20032;-77
2022/03/25 06:46:26;;;;;;;4.32;2.58;;;;;;;;;;7388979;19;20470;-77
2022/03/25 06:48:52;;;;;;;5.00;2.78;;;;;;;;;;7390898;19;20396;-76
2022/03/25 06:51:18;;;;;;;6.47;3.00;;;;;;;;;;7391577;19;20468;-76
2022/03/25 06:53:44;;;;;;;5.40;2.60;;;;;;;;;;7394411;19;20007;-76
2022/03/25 06:56:10;;;;;;;4.30;2.47;;;;;;;;;;7389011;19;20011;-77
2022/03/25 06:58:37;;;;;;;5.65;3.03;;;;;;;;;;7391257;19;20006;-76
2022/03/25 07:01:03;;;;;;;6.57;3.25;;;;;;;;;;7390036;19;20070;-78
2022/03/25 07:03:28;;;;;;;6.38;3.22;;;;;;;;;;7341835;19;20056;-77
2022/03/25 07:05:56;;;;;;;5.38;2.90;;;;;;;;;;7386983;19;20010;-76
2022/03/25 07:08:22;;;;;;;7.95;3.40;;;;;;;;;;7390514;19;20707;-77
2022/03/25 07:10:48;;;;;;;6.95;3.22;;;;;;;;;;7391193;19;20022;-77
2022/03/25 07:13:14;;;;;;;5.45;2.58;;;;;;;;;;7389544;19;20031;-77
2022/03/25 07:15:39;;;;;;;5.72;3.78;;;;;;;;;;7389956;19;20517;-77
2022/03/25 07:18:04;;;;;;;7.85;3.45;;;;;;;;;;7360077;19;20015;-76
2022/03/25 07:20:30;;;;;;;9.45;3.30;;;;;;;;;;7390475;19;19999;-77
2022/03/25 07:22:56;;;;;;;7.93;3.10;;;;;;;;;;7389553;19;20039;-77
2022/03/25 07:25:22;;;;;;;9.93;3.17;;;;;;;;;;7389270;19;20035;-76
2022/03/25 07:27:48;;;;;;;6.72;3.78;;;;;;;;;;7388771;19;20011;-77
2022/03/25 07:30:15;;;;;;;8.55;3.90;;;;;;;;;;7387113;19;20007;-77
2022/03/25 07:32:40;;;;;;;6.93;3.50;;;;;;;;;;7392936;19;20010;-77
2022/03/25 07:35:07;;;;;;;8.75;4.38;;;;;;;;;;7390595;19;20077;-77
2022/03/25 07:37:32;;;;;;;10.48;5.10;;;;;;;;;;7388668;19;20031;-77
2022/03/25 07:39:57;;;;;;;12.43;5.00;;;;;;;;;;7390779;19;20007;-77
2022/03/25 07:42:23;;;;;;;18.35;5.55;;;;;;;;;;7390514;19;20025;-76
2022/03/25 07:44:48;;;;;;;11.43;5.70;;;;;;;;;;7391777;19;20035;-77
2022/03/25 07:47:14;;;;;;;11.65;5.55;;;;;;;;;;7390140;19;20006;-77
2022/03/25 07:49:40;;;;;;;12.55;6.15;;;;;;;;;;7389971;19;20569;-76
2022/03/25 07:52:07;;;;;;;8.60;5.20;;;;;;;;;;7393869;19;20128;-77
2022/03/25 07:54:33;;;;;;;17.40;6.55;;;;;;;;;;7393737;19;20007;-77
2022/03/25 07:56:59;;;;;;;10.77;5.78;;;;;;;;;;7393873;19;20005;-77
2022/03/25 07:59:26;;;;;;;13.13;6.88;;;;;;;;;;7393286;19;20006;-77
2022/03/25 08:01:54;;;;;;;13.60;6.28;;;;;;;;;;7391241;19;20006;-76
2022/03/25 08:04:24;;;;;;;14.30;6.72;;;;;;;;;;7391132;19;20010;-77
2022/03/25 08:06:50;;;;;;;11.93;6.30;;;;;;;;;;7390209;19;20078;-77
2022/03/25 08:09:15;;;;;;;14.07;7.03;;;;;;;;;;7387645;19;20348;-77
2022/03/25 08:11:40;;;;;;;15.25;7.22;;;;;;;;;;7392245;19;20035;-77
2022/03/25 08:14:06;;;;;;;16.77;7.55;;;;;;;;;;7391439;19;20390;-77
2022/03/25 08:16:32;;;;;;;13.95;7.13;;;;;;;;;;7391816;19;20010;-77
2022/03/25 08:18:57;;;;;;;17.33;8.05;;;;;;;;;;7387829;19;20011;-77
2022/03/25 08:21:23;;;;;;;15.77;7.90;;;;;;;;;;7390017;19;20070;-77
2022/03/25 08:29:17;;;;;;;14.38;7.47;;;;;;;;;;7389191;19;20035;-77
2022/03/25 08:31:43;;;;;;;16.23;8.57;;;;;;;;;;7390216;19;20037;-77
2022/03/25 08:34:13;;;;;;;15.57;7.45;;;;;;;;;;7388495;19;20011;-77
2022/03/25 08:36:38;;;;;;;14.55;8.48;;;;;;;;;;7390127;19;20059;-76
2022/03/25 08:39:04;;;;;;;18.52;8.18;;;;;;;;;;7387579;19;20010;-77
2022/03/25 08:41:29;;;;;;;17.55;8.75;;;;;;;;;;7388532;19;20006;-77
2022/03/25 08:43:55;;;;;;;20.73;8.70;;;;;;;;;;7389222;19;20006;-77
2022/03/25 08:46:20;;;;;;;13.70;7.47;;;;;;;;;;7387107;19;20002;-78
2022/03/25 08:48:46;;;;;;;16.60;9.00;;;;;;;;;;7389092;19;20463;-77
2022/03/25 08:51:12;;;;;;;15.13;8.32;;;;;;;;;;7387606;19;20552;-77
2022/03/25 08:53:37;;;;;;;16.75;8.55;;;;;;;;;;7388977;19;20021;-78
2022/03/25 08:56:03;;;;;;;18.30;8.70;;;;;;;;;;7387216;19;20015;-78
2022/03/25 08:58:28;;;;;;;19.15;8.80;;;;;;;;;;7388903;19;20014;-78
2022/03/25 09:00:53;;;;;;;18.95;8.98;;;;;;;;;;7390030;19;20017;-79
2022/03/25 09:03:18;;;;;;;23.15;10.07;;;;;;;;;;7388186;19;20086;-77
2022/03/25 09:05:44;;;;;;;16.15;9.45;;;;;;;;;;7391255;19;20018;-77
2022/03/25 09:08:09;;;;;;;18.23;8.65;;;;;;;;;;7385293;19;20002;-77
2022/03/25 09:10:34;;;;;;;19.25;10.00;;;;;;;;;;7386168;19;20454;-78
2022/03/25 09:13:00;;;;;;;21.73;9.95;;;;;;;;;;7389452;19;20217;-78
2022/03/25 09:15:25;;;;;;;17.75;9.75;;;;;;;;;;7389532;19;20078;-77
2022/03/25 09:17:51;;;;;;;18.60;10.20;;;;;;;;;;7386850;19;19994;-78
2022/03/25 09:20:16;;;;;;;16.63;9.68;;;;;;;;;;7388254;19;20027;-78
2022/03/25 09:22:43;;;;;;;22.58;10.32;;;;;;;;;;7386711;19;20002;-77
2022/03/25 09:25:10;;;;;;;21.67;10.45;;;;;;;;;;7387977;19;20006;-78
2022/03/25 09:27:36;;;;;;;18.75;9.43;;;;;;;;;;7387484;19;20014;-80
2022/03/25 09:30:04;;;;;;;19.15;10.60;;;;;;;;;;7386250;19;20014;-77
2022/03/25 09:32:30;;;;;;;18.85;10.82;;;;;;;;;;7385604;19;20026;-78
2022/03/25 09:35:10;;;;;;;22.02;10.70;;;;;;;;;;7384276;19;20442;-78
2022/03/25 09:37:37;;;;;;;16.45;9.80;;;;;;;;;;7389582;19;20010;-77
2022/03/25 09:40:08;;;;;;;19.25;10.38;;;;;;;;;;7382518;19;20007;-77
2022/03/25 09:42:34;;;;;;;20.83;9.98;;;;;;;;;;7388274;19;20045;-77
2022/03/25 09:45:04;;;;;;;21.25;11.05;;;;;;;;;;7387531;19;20115;-79
2022/03/25 09:47:32;;;;;;;20.95;10.55;;;;;;;;;;7386849;19;20003;-78
2022/03/25 09:50:02;;;;;;;20.38;10.20;;;;;;;;;;7386145;19;20015;-78
2022/03/25 09:52:29;;;;;;;19.17;10.23;;;;;;;;;;7388972;19;20011;-78
2022/03/25 09:54:54;;;;;;;20.23;9.98;;;;;;;;;;7384133;19;20006;-78
2022/03/25 09:57:19;;;;;;;19.40;10.98;;;;;;;;;;7396631;19;20034;-77
2022/03/25 09:59:45;;;;;;;18.75;10.00;;;;;;;;;;7394779;19;20502;-78
2022/03/25 10:02:11;;;;;;;18.35;10.65;;;;;;;;;;7393281;19;20010;-79
2022/03/25 10:04:44;;;;;;;22.77;10.85;;;;;;;;;;7394088;19;20002;-78
2022/03/25 10:07:22;;;;;;;19.73;10.48;;;;;;;;;;7391141;19;20007;-77
2022/03/25 10:10:06;;;;;;;18.50;9.30;;;;;;;;;;7393387;19;20037;-77
2022/03/25 10:12:32;;;;;;;19.25;9.40;;;;;;;;;;7393624;19;20010;-79
2022/03/25 10:15:17;;;;;;;21.60;10.35;;;;;;;;;;7394855;19;20038;-78
2022/03/25 10:17:53;;;;;;;20.00;10.38;;;;;;;;;;7396639;19;20020;-79
2022/03/25 10:20:39;;;;;;;19.35;10.35;;;;;;;;;;7392534;19;20003;-78
2022/03/25 10:23:11;;;;;;;;;;;;;;;;;;7397635;19;20014;-78
2022/03/25 10:25:37;;;;;;;19.92;11.00;;;;;;;;;;7392941;19;20375;-78
2022/03/25 10:28:04;;;;;;;20.38;11.10;;;;;;;;;;7393747;19;20091;-80
2022/03/25 10:30:38;;;;;;;23.48;11.98;;;;;;;;;;7391168;19;20730;-78
2022/03/25 10:33:19;;;;;;;18.90;10.30;;;;;;;;;;7389061;19;20014;-77
2022/03/25 10:35:56;;;;;;;19.02;10.23;;;;;;;;;;7391688;19;20346;-78
2022/03/25 10:38:22;;;;;;;18.00;9.95;;;;;;;;;;7389399;19;20761;-77
2022/03/25 10:40:49;;;;;;;21.15;10.85;;;;;;;;;;7387106;19;19999;-77
2022/03/25 10:43:15;;;;;;;17.55;10.30;;;;;;;;;;7390348;19;20584;-78
2022/03/25 10:45:40;;;;;;;20.45;10.85;;;;;;;;;;7388633;19;20017;-78
2022/03/25 10:48:12;;;;;;;17.08;9.88;;;;;;;;;;7386042;19;20085;-77
2022/03/25 10:50:53;;;;;;;33.28;10.85;;;;;;;;;;7386169;19;20092;-78
2022/03/25 10:53:21;;;;;;;16.33;9.98;;;;;;;;;;7390288;19;20469;-78
2022/03/25 10:55:58;;;;;;;21.58;9.88;;;;;;;;;;7386654;19;20010;-78
2022/03/25 10:58:24;;;;;;;21.35;11.07;;;;;;;;;;7389098;19;20090;-78
2022/03/25 11:00:49;;;;;;;17.90;9.93;;;;;;;;;;7385566;19;20014;-77
2022/03/25 11:03:16;;;;;;;18.20;11.10;;;;;;;;;;7389708;19;20014;-78
2022/03/25 11:05:41;;;;;;;20.08;11.55;;;;;;;;;;7389220;19;20011;-78
2022/03/25 11:08:08;;;;;;;21.42;12.32;;;;;;;;;;7385643;19;20002;-78
2022/03/25 11:10:33;;;;;;;19.70;11.13;;;;;;;;;;7383052;19;20007;-77
2022/03/25 11:13:03;;;;;;;18.85;10.60;;;;;;;;;;7390823;19;20007;-77
2022/03/25 11:15:30;;;;;;;19.83;11.35;;;;;;;;;;7386203;19;20429;-77
2022/03/25 11:17:56;;;;;;;18.10;10.35;;;;;;;;;;7389417;19;20014;-77
2022/03/25 11:20:25;;;;;;;18.77;10.70;;;;;;;;;;7381809;19;20010;-77
2022/03/25 11:23:01;;;;;;;18.05;9.35;;;;;;;;;;7391556;19;20010;-77
2022/03/25 11:25:29;;;;;;;18.52;10.05;;;;;;;;;;7389478;19;20503;-77
2022/03/25 11:28:08;;;;;;;16.70;10.77;;;;;;;;;;7390378;19;20003;-78
2022/03/25 11:30:35;;;;;;;16.17;10.68;;;;;;;;;;7387495;19;20151;-77
2022/03/25 11:33:02;;;;;;;20.65;11.20;;;;;;;;;;7390410;19;20011;-78
2022/03/25 11:35:30;;;;;;;20.35;10.30;;;;;;;;;;7387199;19;20011;-78
2022/03/25 11:38:11;;;;;;;20.30;10.98;;;;;;;;;;7389308;19;20010;-76
2022/03/25 11:40:39;;;;;;;23.08;9.68;;;;;;;;;;7386194;19;20459;-77
2022/03/25 11:43:25;;;;;;;17.42;10.18;;;;;;;;;;7389417;19;20014;-77
2022/03/25 11:45:59;;;;;;;14.68;9.13;;;;;;;;;;7387926;19;20009;-77
2022/03/25 11:48:25;;;;;;;16.13;10.60;;;;;;;;;;7387242;19;20017;-78
2022/03/25 11:50:51;;;;;;;22.02;11.43;;;;;;;;;;7388028;19;20014;-79
2022/03/25 11:53:18;;;;;;;17.77;10.20;;;;;;;;;;7390094;19;20435;-78
2022/03/25 11:56:06;;;;;;;14.07;9.15;;;;;;;;;;7387073;19;20010;-78
2022/03/25 11:58:37;;;;;;;18.13;10.48;;;;;;;;;;7387572;19;20541;-79
2022/03/25 12:01:03;;;;;;;16.45;9.77;;;;;;;;;;7385439;19;20015;-78
2022/03/25 12:03:41;;;;;;;15.13;9.20;;;;;;;;;;7381626;19;20110;-79
2022/03/25 12:06:08;;;;;;;16.58;10.10;;;;;;;;;;7386260;19;20006;-79
2022/03/25 12:08:39;;;;;;;14.13;9.18;;;;;;;;;;7383903;19;20046;-79
2022/03/25 12:11:06;;;;;;;13.43;9.05;;;;;;;;;;7383332;19;20014;-79
2022/03/25 12:13:50;;;;;;;19.58;10.45;;;;;;;;;;7385814;19;20367;-79
2022/03/25 12:16:47;;;;;;;15.70;9.15;;;;;;;;;;7386596;19;20478;-80
2022/03/25 12:19:38;;;;;;;15.30;8.60;;;;;;;;;;7384565;19;20158;-79
2022/03/25 12:22:22;;;;;;;17.27;10.20;;;;;;;;;;7389329;19;20034;-79
2022/03/25 12:24:52;;;;;;;15.85;10.23;;;;;;;;;;7387213;19;20011;-78
2022/03/25 12:27:19;;;;;;;13.95;9.23;;;;;;;;;;7388050;19;20015;-78
2022/03/25 12:29:51;;;;;;;18.55;10.45;;;;;;;;;;7390928;19;20018;-79
2022/03/25 12:32:18;;;;;;;14.57;9.30;;;;;;;;;;7391339;19;19990;-80
2022/03/25 12:35:05;;;;;;;18.88;10.82;;;;;;;;;;7390331;19;20035;-77
2022/03/25 12:38:03;;;;;;;15.43;9.88;;;;;;;;;;7390835;19;20014;-79
2022/03/25 12:40:32;;;;;;;14.65;9.25;;;;;;;;;;7387184;19;20062;-80
2022/03/25 12:43:08;;;;;;;17.65;10.27;;;;;;;;;;7392336;19;20014;-77
2022/03/25 12:45:48;;;;;;;10.45;7.60;;;;;;;;;;7388189;19;20050;-77
2022/03/25 12:48:19;;;;;;;16.50;10.02;;;;;;;;;;7388431;19;20461;-77
2022/03/25 12:50:50;;;;;;;12.77;8.52;;;;;;;;;;7409689;19;20141;-76
2022/03/25 12:53:21;;;;;;;13.73;8.80;;;;;;;;;;7418717;19;20003;-79
2022/03/25 12:55:46;;;;;;;15.10;10.23;;;;;;;;;;7417468;19;20022;-76
2022/03/25 12:58:14;;;;;;;18.00;9.95;;;;;;;;;;7417750;19;20010;-79
2022/03/25 13:00:45;;;;;;;19.27;10.93;;;;;;;;;;7405751;19;20007;-79
2022/03/25 13:03:12;;;;;;;16.08;9.85;;;;;;;;;;7391596;19;20010;-79
2022/03/25 13:05:38;;;;;;;15.75;9.35;;;;;;;;;;7392694;19;20006;-82
2022/03/25 13:08:04;;;;;;;16.60;9.27;;;;;;;;;;7390226;19;20464;-76
2022/03/25 13:10:30;;;;;;;16.90;8.75;;;;;;;;;;7388933;19;20016;-79
2022/03/25 13:12:58;;;;;;;13.23;8.75;;;;;;;;;;7392244;19;20017;-78
2022/03/25 13:15:27;;;;;;;16.02;9.35;;;;;;;;;;7390915;19;20015;-79
2022/03/25 13:17:54;;;;;;;15.57;9.18;;;;;;;;;;7390027;19;20011;-78
2022/03/25 13:20:22;;;;;;;12.38;8.15;;;;;;;;;;7386967;19;20134;-77
2022/03/25 13:22:55;;;;;;;16.35;8.13;;;;;;;;;;7389628;19;20002;-77
2022/03/25 13:25:28;;;;;;;12.50;7.28;;;;;;;;;;7389005;19;20282;-79
2022/03/25 13:27:55;;;;;;;10.00;6.70;;;;;;;;;;7389910;19;20002;-79
2022/03/25 13:30:22;;;;;;;15.57;9.07;;;;;;;;;;7390875;19;20003;-76
2022/03/25 13:33:05;;;;;;;15.65;9.45;;;;;;;;;;7397214;19;20010;-78
2022/03/25 13:35:33;;;;;;;12.73;8.30;;;;;;;;;;7399705;19;20027;-78
2022/03/25 13:38:07;;;;;;;17.25;7.95;;;;;;;;;;7396506;19;20010;-78
2022/03/25 13:41:36;;;;;;;13.35;7.55;;;;;;;;;;7396763;19;20121;-79
2022/03/25 13:44:38;;;;;;;11.57;6.32;;;;;;;;;;7398725;19;20002;-79
2022/03/25 13:47:13;;;;;;;11.77;6.60;;;;;;;;;;7393776;19;20007;-79
2022/03/25 13:49:44;;;;;;;11.70;7.07;;;;;;;;;;7391706;19;20070;-78
2022/03/25 13:52:12;;;;;;;12.45;7.78;;;;;;;;;;7397543;19;20022;-78
2022/03/25 13:54:38;;;;;;;10.02;6.72;;;;;;;;;;7391593;19;20029;-78
2022/03/25 13:57:04;;;;;;;11.85;7.72;;;;;;;;;;7394951;19;20943;-78
2022/03/25 13:59:40;;;;;;;11.57;7.07;;;;;;;;;;7395702;19;20014;-78
2022/03/25 14:02:31;;;;;;;14.02;6.75;;;;;;;;;;7397087;19;20517;-77
2022/03/25 14:04:57;;;;;;;9.05;5.82;;;;;;;;;;7394208;19;20099;-78
2022/03/25 14:07:23;;;;;;;6.60;4.93;;;;;;;;;;7396412;19;20123;-77
2022/03/25 14:09:56;;;;;;;7.25;5.05;;;;;;;;;;7391091;19;20014;-77
2022/03/25 14:12:23;;;;;;;7.57;4.90;;;;;;;;;;7395061;19;20014;-78
2022/03/25 14:14:56;;;;;;;7.95;5.68;;;;;;;;;;7393450;19;21901;-77
2022/03/25 14:17:32;;;;;;;12.23;6.40;;;;;;;;;;7393289;19;20010;-77
2022/03/25 14:20:25;;;;;;;9.80;5.93;;;;;;;;;;7389416;19;20146;-78
2022/03/25 14:22:53;;;;;;;8.85;6.15;;;;;;;;;;7392761;19;20013;-76
2022/03/25 14:25:22;;;;;;;10.80;6.88;;;;;;;;;;7394883;19;20032;-78
2022/03/25 14:27:53;;;;;;;7.80;4.95;;;;;;;;;;7396827;19;20062;-77
2022/03/25 14:30:19;;;;;;;8.48;5.55;;;;;;;;;;7397343;19;20066;-77
2022/03/25 14:32:45;;;;;;;9.48;6.20;;;;;;;;;;7392483;19;20006;-77
2022/03/25 14:35:11;;;;;;;8.88;6.03;;;;;;;;;;7391247;19;20002;-78
2022/03/25 14:37:36;;;;;;;10.13;6.63;;;;;;;;;;7384935;19;20006;-76
2022/03/25 14:40:03;;;;;;;13.00;6.60;;;;;;;;;;7383915;19;20086;-76
2022/03/25 14:42:29;;;;;;;11.98;6.25;;;;;;;;;;7384880;19;20011;-76
2022/03/25 14:44:54;;;;;;;11.50;7.28;;;;;;;;;;7388706;19;20006;-76